MSC Vigo — A8ZV8 — position and weather

sailwx.info

Track history (hours):
 
Tides and Currents Weather Stations Pressure Air Temp Water Temp Dewpoint Dewpoint Depression Visibility Wind Speed Wind Dir Waves Ship Positions

MSC Vigo

Last reported at 2015-Mar-04 12:00 UTC. Time now 2015-Mar-05 08:10 UTC.
Position S 10°06' W 035°12'.

Length 270 m; draft 12.1 m.

Type: Ship (hazmat cat A). MMSI: 636092276.

Wind from 120 at 12 knots

Waves 0.5 meters (2 feet), 2 second period

Barometer 1015.0 mb
Air temperature 29.0 ° C
Visibility: greater than 10.8 NM
Dewpoint 22.8 ° C
Water temperature 30.0 ° C

Date/timePositionNaut miles runAvg speedWind from/ knotsBaromVisibWave heightAir tempDewpointWater temp
2015-Mar-04 12:00S 10°06' W 035°12'42817.8 120 / 121015.010.8 0.529.022.830.0
2015-Mar-03 12:00S 16°48' W 037°42'41617.3 090 / 61016.010.8 29.524.030.0
2015-Mar-02 12:00S 22°48' W 041°24'265 9.0 100 / 71020.010.8 27.521.126.0
2015-Mar-01 06:33S 24°03' W 046°01'1716.9
2015-Mar-01 05:32S 24°03' W 046°20'6 5.8
2015-Mar-01 04:33S 23°57' W 046°18'3 0.7
2015-Feb-28 23:18S 23°55' W 046°21'0 0.0
2015-Feb-28 20:03S 23°55' W 046°21'1 0.1
2015-Feb-28 10:33S 23°55' W 046°20'5 4.9
2015-Feb-28 09:33S 24°00' W 046°20'3 0.4
2015-Feb-28 01:31S 24°04' W 046°21'0 0.0
2015-Feb-28 00:31S 24°04' W 046°21'0 0.0
2015-Feb-27 23:19S 24°04' W 046°21'0 0.0
2015-Feb-27 22:31S 24°04' W 046°21'0 0.0
2015-Feb-27 21:28S 24°04' W 046°21'0 0.1
2015-Feb-27 19:31S 24°03' W 046°21'0 0.0
2015-Feb-27 18:31S 24°03' W 046°21'0 0.0
2015-Feb-27 17:28S 24°03' W 046°21'0 0.0
2015-Feb-27 16:28S 24°03' W 046°21'2 0.5
2015-Feb-27 12:32S 24°06' W 046°21'1212.1
2015-Feb-27 11:31S 24°17' W 046°27'  
2015-Feb-23 18:30S 26°58' W 048°22'2814.3
2015-Feb-23 16:31S 27°22' W 048°06'1819.1
2015-Feb-23 15:33S 27°41' W 048°07'1918.9
2015-Feb-23 14:33S 27°57' W 048°17'4216.4
2015-Feb-23 12:00S 28°36' W 048°36'   020 / 161016.010.8 1.029.023.527.0
Track history (hours):
 
Tides and Currents Weather Stations Pressure Air Temp Water Temp Dewpoint Dewpoint Depression Visibility Wind Speed Wind Dir Waves Ship Positions

MSC Vigo

Last reported at 2015-Mar-04 12:00 UTC. Time now 2015-Mar-05 08:10 UTC.
Position S 10°06' W 035°12'.

Length 270 m; draft 12.1 m.

Type: Ship (hazmat cat A). MMSI: 636092276.

Wind from 120 at 12 knots

Waves 0.5 meters (2 feet), 2 second period

Barometer 1015.0 mb
Air temperature 29.0 ° C
Visibility: greater than 10.8 NM
Dewpoint 22.8 ° C
Water temperature 30.0 ° C

Date/timePositionNaut miles runAvg speedWind from/ knotsBaromVisibWave heightAir tempDewpointWater temp
2015-Mar-04 12:00S 10°06' W 035°12'42817.8 120 / 121015.010.8 0.529.022.830.0
2015-Mar-03 12:00S 16°48' W 037°42'41617.3 090 / 61016.010.8 29.524.030.0
2015-Mar-02 12:00S 22°48' W 041°24'265 9.0 100 / 71020.010.8 27.521.126.0
2015-Mar-01 06:33S 24°03' W 046°01'1716.9
2015-Mar-01 05:32S 24°03' W 046°20'6 5.8
2015-Mar-01 04:33S 23°57' W 046°18'3 0.7
2015-Feb-28 23:18S 23°55' W 046°21'0 0.0
2015-Feb-28 20:03S 23°55' W 046°21'1 0.1
2015-Feb-28 10:33S 23°55' W 046°20'5 4.9
2015-Feb-28 09:33S 24°00' W 046°20'3 0.4
2015-Feb-28 01:31S 24°04' W 046°21'0 0.0
2015-Feb-28 00:31S 24°04' W 046°21'0 0.0
2015-Feb-27 23:19S 24°04' W 046°21'0 0.0
2015-Feb-27 22:31S 24°04' W 046°21'0 0.0
2015-Feb-27 21:28S 24°04' W 046°21'0 0.1
2015-Feb-27 19:31S 24°03' W 046°21'0 0.0
2015-Feb-27 18:31S 24°03' W 046°21'0 0.0
2015-Feb-27 17:28S 24°03' W 046°21'0 0.0
2015-Feb-27 16:28S 24°03' W 046°21'2 0.5
2015-Feb-27 12:32S 24°06' W 046°21'1212.1
2015-Feb-27 11:31S 24°17' W 046°27'  
2015-Feb-23 18:30S 26°58' W 048°22'2814.3
2015-Feb-23 16:31S 27°22' W 048°06'1819.1
2015-Feb-23 15:33S 27°41' W 048°07'1918.9
2015-Feb-23 14:33S 27°57' W 048°17'4216.4
2015-Feb-23 12:00S 28°36' W 048°36'   020 / 161016.010.8 1.029.023.527.0

Dump ship's entire track history